createdAt,value
2022-10-28T00:01:24.322Z,101058.13
2022-10-28T00:04:01.206Z,101066.47
2022-10-28T00:06:35.440Z,101034.19
2022-10-28T00:09:06.971Z,101055.97
2022-10-28T00:11:37.345Z,101056.63
2022-10-28T00:14:07.749Z,101052.88
2022-10-28T00:16:37.633Z,101046.59
2022-10-28T00:19:23.869Z,101047.66
2022-10-28T00:21:51.483Z,101035.50
2022-10-28T00:24:19.229Z,101030.28
2022-10-28T00:26:49.008Z,101045.94
2022-10-28T00:29:18.848Z,101036.28
2022-10-28T00:31:47.285Z,101041.03
2022-10-28T00:34:17.541Z,101027.03
2022-10-28T00:36:46.865Z,101046.31
2022-10-28T00:39:20.172Z,101044.97
2022-10-28T00:41:56.349Z,101032.34
2022-10-28T00:45:01.763Z,101037.97
2022-10-28T00:47:37.302Z,101025.31
2022-10-28T00:50:23.818Z,101034.09
2022-10-28T00:53:17.790Z,101027.44
2022-10-28T00:55:50.470Z,101031.47
2022-10-28T00:58:21.348Z,101034.19
2022-10-28T01:00:49.227Z,101025.41
2022-10-28T01:03:16.837Z,101033.16
2022-10-28T01:05:48.232Z,101031.47
2022-10-28T01:08:17.176Z,101027.28
2022-10-28T01:10:59.948Z,101019.78
2022-10-28T01:13:45.993Z,101029.91
2022-10-28T01:16:43.020Z,101031.22
2022-10-28T01:19:25.935Z,101022.59
2022-10-28T01:22:21.217Z,101022.59
2022-10-28T01:25:22.463Z,101021.78
2022-10-28T01:28:28.426Z,101025.88
2022-10-28T01:31:13.714Z,101022.13
2022-10-28T01:34:11.506Z,101017.91
2022-10-28T01:36:41.693Z,101019.09
2022-10-28T01:39:32.820Z,101017.44
2022-10-28T01:42:32.914Z,101021.81
2022-10-28T01:45:10.373Z,101013.22
2022-10-28T01:48:03.620Z,101016.13
2022-10-28T01:50:46.416Z,100995.53
2022-10-28T01:53:17.141Z,101006.31
2022-10-28T01:55:48.929Z,101010.72
2022-10-28T01:58:21.929Z,101012.75
2022-10-28T02:00:50.216Z,101006.00
2022-10-28T02:03:18.122Z,101005.72
2022-10-28T02:05:48.575Z,100998.44
2022-10-28T02:08:15.736Z,101011.81
2022-10-28T02:10:49.937Z,101005.72
2022-10-28T02:13:19.447Z,100999.16
2022-10-28T02:15:55.743Z,100984.28
2022-10-28T02:18:41.597Z,101003.38
2022-10-28T02:21:34.386Z,101002.06
2022-10-28T02:24:10.393Z,101004.09
2022-10-28T02:26:44.030Z,100999.03
2022-10-28T02:29:38.566Z,100999.03
2022-10-28T02:32:12.625Z,101005.78
2022-10-28T02:34:45.717Z,100988.94
2022-10-28T02:37:26.280Z,101008.94
2022-10-28T02:39:58.849Z,101001.44
2022-10-28T02:42:30.915Z,100992.38
2022-10-28T02:45:05.720Z,100990.69
2022-10-28T02:47:36.771Z,100993.41
2022-10-28T02:50:14.661Z,100999.13
2022-10-28T02:52:45.525Z,100998.09
2022-10-28T02:55:13.242Z,101000.13
2022-10-28T02:57:44.929Z,100998.63
2022-10-28T03:00:18.679Z,100991.63
2022-10-28T03:02:46.745Z,100989.44
2022-10-28T03:05:14.552Z,100984.00
2022-10-28T03:07:41.873Z,100998.69
2022-10-28T03:10:09.993Z,100995.53
2022-10-28T03:12:37.401Z,101001.22
2022-10-28T03:15:05.412Z,100991.78
2022-10-28T03:17:32.808Z,101002.78
2022-10-28T03:20:00.268Z,100992.22
2022-10-28T03:22:28.314Z,101006.75
2022-10-28T03:24:55.916Z,101017.72
2022-10-28T03:27:23.235Z,101009.41
2022-10-28T03:29:50.750Z,101008.97
2022-10-28T03:32:18.038Z,101016.59
2022-10-28T03:34:47.443Z,101014.72
2022-10-28T03:37:14.839Z,101010.97
2022-10-28T03:39:42.407Z,101023.03
2022-10-28T03:42:09.643Z,101018.81
2022-10-28T03:44:37.419Z,101023.75
2022-10-28T03:47:04.733Z,101012.97
2022-10-28T03:49:32.247Z,101012.31
2022-10-28T03:51:59.489Z,101017.22
2022-10-28T03:54:27.048Z,101015.72
2022-10-28T03:56:54.291Z,101027.09
2022-10-28T03:59:21.759Z,101014.44
2022-10-28T04:01:49.474Z,101016.84
2022-10-28T04:04:17.237Z,101013.97
2022-10-28T04:06:45.328Z,101027.84
2022-10-28T04:09:12.884Z,101027.66
2022-10-28T04:11:40.110Z,101020.28
2022-10-28T04:14:07.613Z,101015.91
2022-10-28T04:16:34.887Z,101033.63
2022-10-28T04:19:02.569Z,101030.25
2022-10-28T04:21:30.075Z,101034.16
2022-10-28T04:23:57.946Z,101033.13
2022-10-28T04:26:25.367Z,101027.69
2022-10-28T04:28:53.314Z,101031.44
2022-10-28T04:31:20.565Z,101035.00
2022-10-28T04:33:48.051Z,101025.03
2022-10-28T04:36:15.262Z,101023.34
2022-10-28T04:38:42.756Z,101022.31
2022-10-28T04:41:14.307Z,101025.22
2022-10-28T04:43:42.180Z,101023.34
2022-10-28T04:46:10.094Z,101028.44
2022-10-28T04:48:37.568Z,101014.25
2022-10-28T04:51:05.113Z,101011.72
2022-10-28T04:53:32.777Z,101019.00
2022-10-28T04:56:00.565Z,101014.94
2022-10-28T04:58:28.264Z,101025.41
2022-10-28T05:00:56.045Z,101028.63
2022-10-28T05:03:27.750Z,101032.34
2022-10-28T05:05:56.118Z,101026.09
2022-10-28T05:08:27.829Z,101027.09
2022-10-28T05:11:02.167Z,101020.34
2022-10-28T05:13:30.790Z,101032.34
2022-10-28T05:15:58.718Z,101034.75
2022-10-28T05:18:28.969Z,101036.91
2022-10-28T05:20:57.031Z,101032.19
2022-10-28T05:23:27.245Z,101035.03
2022-10-28T05:25:57.306Z,101036.16
2022-10-28T05:28:25.000Z,101041.56
2022-10-28T05:30:52.298Z,101042.25
2022-10-28T05:33:19.811Z,101039.88
2022-10-28T05:35:48.202Z,101047.00
2022-10-28T05:38:17.150Z,101038.56
2022-10-28T05:40:50.787Z,101053.66
2022-10-28T05:43:18.548Z,101052.09
2022-10-28T05:45:55.702Z,101046.34
2022-10-28T05:48:23.880Z,101051.06
2022-10-28T05:50:51.280Z,101048.66
2022-10-28T05:53:18.769Z,101044.44
2022-10-28T05:55:47.798Z,101046.03
2022-10-28T05:58:16.633Z,101045.19
2022-10-28T06:00:45.131Z,101055.81
2022-10-28T06:03:13.334Z,101065.59
2022-10-28T06:05:44.447Z,101062.41
2022-10-28T06:08:15.100Z,101067.13
2022-10-28T06:10:52.245Z,101067.38
2022-10-28T06:13:20.936Z,101068.59
2022-10-28T06:15:59.315Z,101061.41
2022-10-28T06:18:29.631Z,101072.34
2022-10-28T06:21:05.252Z,101069.09
2022-10-28T06:29:29.333Z,101065.88
2022-10-28T06:32:00.760Z,101094.22
2022-10-28T06:34:31.584Z,101090.56
2022-10-28T06:37:41.036Z,101095.91
2022-10-28T06:40:10.309Z,101091.31
2022-10-28T06:42:44.845Z,101090.97
2022-10-28T06:45:20.059Z,101094.69
2022-10-28T06:48:00.679Z,101093.81
2022-10-28T06:50:31.178Z,101095.59
2022-10-28T06:52:59.384Z,101102.69
2022-10-28T06:55:27.806Z,101105.38
2022-10-28T06:57:59.832Z,101108.56
2022-10-28T07:03:03.949Z,101107.75
2022-10-28T07:05:31.851Z,101119.00
2022-10-28T07:08:07.431Z,101113.03
2022-10-28T07:10:49.425Z,101125.63
2022-10-28T07:13:31.543Z,101122.81
2022-10-28T07:16:01.404Z,101122.38
2022-10-28T07:18:31.050Z,101119.28
2022-10-28T07:21:07.363Z,101126.78
2022-10-28T07:23:36.175Z,101120.34
2022-10-28T07:26:03.762Z,101123.94
2022-10-28T07:28:31.081Z,101135.53
2022-10-28T07:31:15.625Z,101133.09
2022-10-28T07:33:54.191Z,101128.97
2022-10-28T07:36:23.955Z,101131.72
2022-10-28T07:38:55.205Z,101133.16
2022-10-28T07:41:33.323Z,101122.31
2022-10-28T07:44:04.867Z,101134.38
2022-10-28T07:46:34.911Z,101131.78
2022-10-28T07:49:08.285Z,101134.88
2022-10-28T07:51:59.701Z,101123.72
2022-10-28T07:54:34.012Z,101124.00
2022-10-28T07:57:03.719Z,101116.88
2022-10-28T07:59:35.694Z,101124.06
2022-10-28T08:02:04.373Z,101122.38
2022-10-28T08:04:37.449Z,101119.19
2022-10-28T08:07:18.068Z,101121.53
2022-10-28T08:09:49.238Z,101120.94
2022-10-28T08:12:17.025Z,101116.56
2022-10-28T08:14:52.731Z,101123.66
2022-10-28T08:17:53.067Z,101123.81
2022-10-28T08:20:29.109Z,101120.28
2022-10-28T08:23:03.952Z,101123.03
2022-10-28T08:26:03.392Z,101126.94
2022-10-28T08:28:55.050Z,101118.94
2022-10-28T08:31:29.338Z,101116.41
2022-10-28T08:34:00.381Z,101122.38
2022-10-28T08:36:32.531Z,101124.41
2022-10-28T08:39:05.000Z,101120.41
2022-10-28T08:41:59.524Z,101118.28
2022-10-28T08:44:31.134Z,101126.91
2022-10-28T08:47:38.303Z,101118.72
2022-10-28T08:50:19.915Z,101123.75
2022-10-28T08:53:28.038Z,101129.81
2022-10-28T08:56:17.799Z,101127.94
2022-10-28T08:58:47.215Z,101129.41
2022-10-28T09:02:13.785Z,101129.56
2022-10-28T09:04:46.053Z,101129.63
2022-10-28T09:07:56.387Z,101130.78
2022-10-28T09:11:09.938Z,101131.53
2022-10-28T09:14:21.326Z,101122.91
2022-10-28T09:17:21.477Z,101138.28
2022-10-28T09:20:20.168Z,101131.22
2022-10-28T09:23:10.411Z,101137.75
2022-10-28T09:26:11.556Z,101139.59
2022-10-28T09:29:44.712Z,101137.88
2022-10-28T09:32:38.982Z,101125.50
2022-10-28T09:35:36.634Z,101124.78
2022-10-28T09:38:19.634Z,101122.81
2022-10-28T09:40:56.541Z,101115.25
2022-10-28T09:44:03.920Z,101109.22
2022-10-28T09:46:36.250Z,101116.19
2022-10-28T09:49:21.040Z,101120.13
2022-10-28T09:52:03.049Z,101113.13
2022-10-28T09:54:38.197Z,101114.19
2022-10-28T09:57:07.981Z,101113.63
2022-10-28T09:59:35.701Z,101115.22
2022-10-28T10:02:04.811Z,101115.97
2022-10-28T10:04:32.589Z,101107.88
2022-10-28T10:07:11.188Z,101103.06
2022-10-28T10:09:39.932Z,101106.56
2022-10-28T10:12:12.352Z,101109.75
2022-10-28T10:14:45.625Z,101108.91
2022-10-28T10:17:18.898Z,101107.59
2022-10-28T10:20:11.400Z,101103.25
2022-10-28T10:22:44.587Z,101101.84
2022-10-28T10:25:20.392Z,101101.56
2022-10-28T10:28:01.275Z,101105.34
2022-10-28T10:30:34.787Z,101108.78
2022-10-28T10:33:04.619Z,101093.81
2022-10-28T10:35:37.869Z,101102.47
2022-10-28T10:38:08.462Z,101096.66
2022-10-28T10:40:52.469Z,101094.97
2022-10-28T10:43:39.287Z,101092.44
2022-10-28T10:46:19.107Z,101093.09
2022-10-28T10:49:11.412Z,101087.03
2022-10-28T10:51:42.134Z,101082.38
2022-10-28T10:54:15.901Z,101081.16
2022-10-28T10:56:43.502Z,101081.03
2022-10-28T10:59:30.401Z,101080.59
2022-10-28T11:01:59.663Z,101071.91
2022-10-28T11:04:30.468Z,101075.78
2022-10-28T11:07:01.041Z,101061.28
2022-10-28T11:09:39.631Z,101068.84
2022-10-28T11:12:51.982Z,101067.41
2022-10-28T11:15:31.116Z,101063.56
2022-10-28T11:18:22.636Z,101073.38
2022-10-28T11:21:04.837Z,101071.69
2022-10-28T11:23:46.666Z,101064.13
2022-10-28T11:26:25.482Z,101065.97
2022-10-28T11:29:23.976Z,101058.50
2022-10-28T11:32:26.152Z,101052.41
2022-10-28T11:35:29.018Z,101056.56
2022-10-28T11:38:22.712Z,101059.75
2022-10-28T11:41:21.363Z,101051.59
2022-10-28T11:43:55.054Z,101041.75
2022-10-28T11:46:52.354Z,101051.75
2022-10-28T11:49:59.320Z,101050.56
2022-10-28T11:52:49.598Z,101041.03
2022-10-28T11:55:31.280Z,101041.78
2022-10-28T11:58:34.924Z,101034.69
2022-10-28T12:01:42.315Z,101036.41
2022-10-28T12:04:32.231Z,101011.97
2022-10-28T12:07:39.695Z,101021.94
2022-10-28T12:10:19.922Z,101024.53
2022-10-28T12:13:36.739Z,101024.41
2022-10-28T12:16:44.424Z,101005.31
2022-10-28T12:19:28.413Z,101024.72
2022-10-28T12:22:13.127Z,101022.78
2022-10-28T12:24:48.951Z,101011.16
2022-10-28T12:27:32.227Z,101012.53
2022-10-28T12:30:23.161Z,101010.31
2022-10-28T12:33:00.198Z,101001.72
2022-10-28T12:35:41.488Z,101002.28
2022-10-28T12:38:16.000Z,100998.13
2022-10-28T12:41:14.079Z,100994.28
2022-10-28T12:44:01.296Z,100994.44
2022-10-28T12:47:02.450Z,100988.16
2022-10-28T12:50:02.977Z,100987.06
2022-10-28T12:52:38.833Z,100986.34
2022-10-28T12:58:19.878Z,100977.56
2022-10-28T13:01:11.538Z,100981.38
2022-10-28T13:03:40.405Z,100969.00
2022-10-28T13:06:27.963Z,100968.47
2022-10-28T13:09:01.566Z,100971.94
2022-10-28T13:12:01.288Z,100969.31
2022-10-28T13:15:10.125Z,100966.03
2022-10-28T13:17:47.236Z,100942.84
2022-10-28T13:20:52.989Z,100967.31
2022-10-28T13:23:51.446Z,100966.16
2022-10-28T13:26:37.012Z,100957.06
2022-10-28T13:29:07.862Z,100956.50
2022-10-28T13:31:42.081Z,100966.16
2022-10-28T13:34:11.678Z,100965.25
2022-10-28T13:36:43.038Z,100965.25
2022-10-28T13:39:42.867Z,100967.28
2022-10-28T13:42:15.079Z,100966.06
2022-10-28T13:44:56.315Z,100970.31
2022-10-28T13:47:34.757Z,100961.13
2022-10-28T13:50:14.823Z,100971.16
2022-10-28T13:52:46.188Z,100966.63
2022-10-28T13:55:34.727Z,100963.31
2022-10-28T13:58:19.492Z,100956.97
2022-10-28T14:00:53.133Z,100967.91
2022-10-28T14:03:26.751Z,100962.25
2022-10-28T14:05:58.166Z,100967.13
2022-10-28T14:08:40.677Z,100959.06
2022-10-28T14:11:22.141Z,100972.78
2022-10-28T14:14:02.750Z,100969.13
2022-10-28T14:16:41.075Z,100963.97
2022-10-28T14:19:11.561Z,100974.06
2022-10-28T14:22:09.025Z,100969.91
2022-10-28T14:24:37.994Z,100978.06
2022-10-28T14:27:08.794Z,100978.56
2022-10-28T14:30:08.178Z,100965.41
2022-10-28T14:32:58.634Z,100963.53
2022-10-28T14:35:44.354Z,100965.25
2022-10-28T14:38:29.439Z,100968.44
2022-10-28T14:41:38.150Z,100969.84
2022-10-28T14:44:42.073Z,100966.94
2022-10-28T14:47:41.996Z,100946.09
2022-10-28T14:50:18.260Z,100963.63
2022-10-28T14:52:48.530Z,100960.91
2022-10-28T14:55:30.825Z,100956.13
2022-10-28T14:58:21.054Z,100961.69
2022-10-28T15:01:16.578Z,100952.50
2022-10-28T15:03:47.777Z,100953.00
2022-10-28T15:06:33.579Z,100957.53
2022-10-28T15:09:15.964Z,100956.94
2022-10-28T15:11:46.588Z,100947.31
2022-10-28T15:14:57.030Z,100952.34
2022-10-28T15:17:31.166Z,100955.69
2022-10-28T15:20:00.751Z,100948.34
2022-10-28T15:22:31.725Z,100950.88
2022-10-28T15:25:10.589Z,100942.16
2022-10-28T15:27:43.089Z,100939.97
2022-10-28T15:30:24.375Z,100949.63
2022-10-28T15:32:58.896Z,100950.00
2022-10-28T15:35:30.046Z,100945.94
2022-10-28T15:38:01.177Z,100949.63
2022-10-28T15:40:33.311Z,100952.47
2022-10-28T15:43:03.735Z,100939.72
2022-10-28T15:45:42.094Z,100955.31
2022-10-28T15:48:15.205Z,100960.06
2022-10-28T15:50:42.870Z,100957.41
2022-10-28T15:53:10.313Z,100947.22
2022-10-28T15:58:35.833Z,100959.25
2022-10-28T16:01:03.874Z,100964.50
2022-10-28T16:03:47.509Z,100958.13
2022-10-28T16:06:39.294Z,100959.13
2022-10-28T16:09:18.427Z,100969.44
2022-10-28T16:11:53.119Z,100963.19
2022-10-28T16:14:31.837Z,100968.94
2022-10-28T16:17:19.490Z,100966.22
2022-10-28T16:19:58.624Z,100965.34
2022-10-28T16:22:28.665Z,100967.88
2022-10-28T16:24:57.581Z,100966.44
2022-10-28T16:27:28.898Z,100968.31
2022-10-28T16:29:58.052Z,100969.66
2022-10-28T16:32:30.776Z,100965.50
2022-10-28T16:35:00.150Z,100972.41
2022-10-28T16:37:31.059Z,100973.50
2022-10-28T16:39:58.951Z,100979.44
2022-10-28T16:42:27.044Z,100977.75
2022-10-28T16:44:54.921Z,100976.72
2022-10-28T16:47:27.066Z,100975.88
2022-10-28T16:49:57.612Z,100969.38
2022-10-28T16:52:30.922Z,100975.94
2022-10-28T16:54:58.999Z,100971.72
2022-10-28T16:57:28.081Z,100977.78
2022-10-28T16:59:58.853Z,100976.97
2022-10-28T17:02:28.463Z,100981.16
2022-10-28T17:04:58.406Z,100966.88
2022-10-28T17:07:27.149Z,100970.22
2022-10-28T17:09:55.157Z,100972.94
2022-10-28T17:12:26.940Z,100983.22
2022-10-28T17:14:54.641Z,100971.47
2022-10-28T17:17:22.438Z,100965.59
2022-10-28T17:19:50.554Z,100972.31
2022-10-28T17:22:18.077Z,100976.75
2022-10-28T17:24:46.994Z,100964.56
2022-10-28T17:27:15.607Z,100973.78
2022-10-28T17:29:44.384Z,100976.13
2022-10-28T17:32:21.962Z,100973.59
2022-10-28T17:34:50.647Z,100977.38
2022-10-28T17:37:20.456Z,100980.09
2022-10-28T17:39:49.397Z,100974.00
2022-10-28T17:42:18.275Z,100979.44
2022-10-28T17:44:48.551Z,100983.84
2022-10-28T17:47:17.892Z,100988.66
2022-10-28T17:49:46.863Z,100983.81
2022-10-28T17:52:14.419Z,100973.34
2022-10-28T17:54:43.507Z,100981.09
2022-10-28T17:57:20.403Z,100980.69
2022-10-28T17:59:52.018Z,100971.06
2022-10-28T18:02:21.173Z,100970.22
2022-10-28T18:04:50.339Z,100972.50
2022-10-28T18:07:18.581Z,100976.69
2022-10-28T18:09:47.384Z,100969.97
2022-10-28T18:12:14.751Z,100963.06
2022-10-28T18:14:47.336Z,100960.50
2022-10-28T18:17:17.431Z,100942.16
2022-10-28T18:19:51.606Z,100959.63
2022-10-28T18:22:20.129Z,100958.78
2022-10-28T18:24:48.755Z,100954.19
2022-10-28T18:27:17.630Z,100962.25
2022-10-28T18:29:46.724Z,100961.72
2022-10-28T18:32:17.590Z,100954.38
2022-10-28T18:34:45.808Z,100964.13
2022-10-28T18:37:13.533Z,100949.88
2022-10-28T18:39:44.227Z,100954.81
2022-10-28T18:42:13.072Z,100962.06
2022-10-28T18:44:41.913Z,100963.13
2022-10-28T18:47:12.841Z,100953.44
2022-10-28T18:49:40.299Z,100954.13
2022-10-28T18:52:08.852Z,100953.13
2022-10-28T18:54:37.654Z,100958.34
2022-10-28T18:57:06.012Z,100956.41
2022-10-28T18:59:35.101Z,100948.34
2022-10-28T19:02:03.590Z,100950.88
2022-10-28T19:04:32.959Z,100947.69
2022-10-28T19:07:02.149Z,100957.22
2022-10-28T19:09:29.818Z,100952.50
2022-10-28T19:12:02.979Z,100967.59
2022-10-28T19:14:30.901Z,100966.78
2022-10-28T19:16:58.848Z,100959.13
2022-10-28T19:19:27.112Z,100955.38
2022-10-28T19:21:57.095Z,100960.72
2022-10-28T19:24:26.700Z,100951.66
2022-10-28T19:26:54.221Z,100954.63
2022-10-28T19:29:21.862Z,100942.94
2022-10-28T19:31:49.654Z,100934.31
2022-10-28T19:34:19.229Z,100952.50
2022-10-28T19:36:51.021Z,100948.84
2022-10-28T19:39:18.471Z,100958.84
2022-10-28T19:41:47.293Z,100947.72
2022-10-28T19:44:14.572Z,100961.09
2022-10-28T19:46:43.257Z,100961.09
2022-10-28T19:49:12.679Z,100962.31
2022-10-28T19:51:41.201Z,100971.41
2022-10-28T19:54:11.595Z,100969.16
2022-10-28T19:56:40.797Z,100974.81
2022-10-28T19:59:08.139Z,100965.91
2022-10-28T20:01:42.222Z,100966.94
2022-10-28T20:04:10.349Z,100973.50
2022-10-28T20:06:40.787Z,100971.50
2022-10-28T20:09:08.763Z,100978.16
2022-10-28T20:11:40.112Z,100976.38
2022-10-28T20:14:10.820Z,100972.56
2022-10-28T20:16:42.960Z,100974.88
2022-10-28T20:19:10.703Z,100978.69
2022-10-28T20:21:39.167Z,100978.31
2022-10-28T20:24:07.700Z,100976.16
2022-10-28T20:26:37.211Z,100963.00
2022-10-28T20:29:06.913Z,100980.59
2022-10-28T20:31:34.580Z,100965.44
2022-10-28T20:34:04.049Z,100967.78
2022-10-28T20:36:38.452Z,100974.16
2022-10-28T20:39:17.815Z,100962.84
2022-10-28T20:41:47.151Z,100981.44
2022-10-28T20:44:15.434Z,100979.63
2022-10-28T20:46:45.124Z,100980.25
2022-10-28T20:49:13.354Z,100984.84
2022-10-28T20:51:41.196Z,100985.34
2022-10-28T20:54:08.949Z,100972.38
2022-10-28T20:56:40.387Z,100982.44
2022-10-28T20:59:10.328Z,100983.44
2022-10-28T21:01:41.589Z,100989.69
2022-10-28T21:04:11.027Z,100988.66
2022-10-28T21:06:40.069Z,100994.47
2022-10-28T21:09:08.921Z,101001.13
2022-10-28T21:11:36.278Z,101001.22
2022-10-28T21:14:03.779Z,101005.53
2022-10-28T21:16:31.818Z,100998.41
2022-10-28T21:19:02.188Z,101002.16
2022-10-28T21:21:30.358Z,100983.22
2022-10-28T21:24:00.599Z,100986.31
2022-10-28T21:26:27.972Z,100975.56
2022-10-28T21:28:57.347Z,100984.44
2022-10-28T21:31:25.724Z,100988.28
2022-10-28T21:33:53.726Z,100978.19
2022-10-28T21:36:22.475Z,100991.88
2022-10-28T21:38:54.285Z,100987.34
2022-10-28T21:41:22.895Z,100986.03
2022-10-28T21:43:52.317Z,100998.81
2022-10-28T21:46:23.331Z,100993.66
2022-10-28T21:48:52.510Z,100988.81
2022-10-28T21:51:19.766Z,100960.28
2022-10-28T21:53:47.266Z,100987.22
2022-10-28T21:56:19.548Z,100988.03
2022-10-28T21:58:49.151Z,100983.84
2022-10-28T22:01:22.474Z,100952.56
2022-10-28T22:04:08.643Z,100968.97
2022-10-28T22:06:35.937Z,100978.25
2022-10-28T22:09:03.579Z,100967.47
2022-10-28T22:11:30.839Z,100958.56
2022-10-28T22:14:01.445Z,100968.94
2022-10-28T22:16:30.614Z,100971.38
2022-10-28T22:19:00.063Z,100970.16
2022-10-28T22:21:30.510Z,100965.00
2022-10-28T22:23:58.011Z,100969.22
2022-10-28T22:26:28.639Z,100972.19
2022-10-28T22:28:56.695Z,100967.53
2022-10-28T22:31:27.958Z,100964.53
2022-10-28T22:33:57.094Z,100962.47
2022-10-28T22:36:26.868Z,100959.09
2022-10-28T22:38:54.600Z,100961.41
2022-10-28T22:41:25.011Z,100955.84
2022-10-28T22:43:57.025Z,100953.19
2022-10-28T22:46:26.615Z,100957.88
2022-10-28T22:48:54.463Z,100951.91
2022-10-28T22:51:22.590Z,100948.69
2022-10-28T22:53:50.607Z,100954.28
2022-10-28T22:56:23.788Z,100952.25
2022-10-28T22:58:59.496Z,100933.06
2022-10-28T23:01:29.375Z,100938.94
2022-10-28T23:03:56.963Z,100931.91
2022-10-28T23:06:27.308Z,100932.69
2022-10-28T23:08:56.018Z,100942.59
2022-10-28T23:11:23.429Z,100934.53
2022-10-28T23:13:52.910Z,100941.03
2022-10-28T23:16:21.272Z,100942.63
2022-10-28T23:18:48.938Z,100945.84
2022-10-28T23:21:19.703Z,100939.97
2022-10-28T23:23:51.299Z,100946.47
2022-10-28T23:26:21.922Z,100940.28
2022-10-28T23:28:55.653Z,100944.41
2022-10-28T23:31:25.999Z,100941.84
2022-10-28T23:33:55.802Z,100932.84
2022-10-28T23:36:23.578Z,100932.09
2022-10-28T23:38:50.963Z,100935.63
2022-10-28T23:41:21.353Z,100933.94
2022-10-28T23:43:52.967Z,100922.44
2022-10-28T23:46:21.695Z,100929.72
2022-10-28T23:48:53.033Z,100933.69
2022-10-28T23:51:24.386Z,100925.16
2022-10-28T23:53:51.708Z,100916.97
2022-10-28T23:56:19.077Z,100920.06
2022-10-28T23:58:46.592Z,100933.53
